Dirgin, Texas
Current Conditions -  °F | °C
As of 3:53 PM on Wednesday 28 Jan 2015 (Local Time) from KGGG Reporting Station
Clear Clear  
Wind Chill: 77°   Ceiling: Unl
Heat Index: 78°   Visibility: 10mi
Dew Point: 44°   Wind: 15mph
Humidity: 31%   Direction: 180°S
Pressure: 30.04"   Gusts: 22mph
Location:  32.3175°N, 94.6057°W
Report Text: KGGG 282153Z 18013G19KT 10SM CLR 25/07 A3004 RMK AO2 SLP172 T02500067
Loading
Personal Weather Stations






























Interactive Weather Map New forecast layout! Learn more

10-Day Weather Forecast

Advertisements
Track Severe Weather on mobile